Time;durP1;ratioP1;P1;durP2;ratioP2;P2;SDS_P1;SDS_P2;PMS_P1;PMS_P2;Temp;Humidity;BMP_temperature;BMP_pressure;BME280_temperature;BME280_humidity;BME280_pressure;Samples;Min_cycle;Max_cycle;Signal;HPM_P1;HPM_P2
2022/04/12 00:00:06;;;;;;;5.95;4.10;;;;;;;12.56;30.98;95555.97;5028374;28;20201;-59
2022/04/12 00:02:40;;;;;;;6.05;3.85;;;;;;;12.42;30.39;95546.94;5032044;28;20212;-59
2022/04/12 00:05:11;;;;;;;5.25;4.00;;;;;;;11.90;31.39;95559.03;5031526;28;20198;-64
2022/04/12 00:07:57;;;;;;;8.60;4.30;;;;;;;12.36;31.04;95552.38;5032446;28;20238;-52
2022/04/12 00:10:24;;;;;;;5.15;3.90;;;;;;;12.70;30.27;95549.25;5031654;28;20229;-58
2022/04/12 00:12:51;;;;;;;9.65;4.35;;;;;;;12.64;30.41;95545.03;5032836;28;20239;-63
2022/04/12 00:15:19;;;;;;;9.02;4.18;;;;;;;12.73;30.46;95548.75;5031905;28;20255;-59
2022/04/12 00:20:32;;;;;;;6.18;3.67;;;;;;;13.10;29.64;95544.28;5031872;28;20204;-58
2022/04/12 00:22:59;;;;;;;5.05;3.70;;;;;;;13.26;29.35;95539.91;5032097;28;20700;-62
2022/04/12 00:25:28;;;;;;;6.47;3.85;;;;;;;13.64;28.86;95528.19;5031138;28;20409;-55
2022/04/12 00:27:56;;;;;;;5.90;4.20;;;;;;;13.60;29.32;95529.75;5032083;28;20216;-66
2022/04/12 00:30:25;;;;;;;5.70;3.90;;;;;;;13.32;29.57;95532.81;5030361;28;20640;-63
2022/04/12 00:32:52;;;;;;;7.00;4.30;;;;;;;12.87;30.57;95528.06;5032103;28;20197;-56
2022/04/12 00:35:21;;;;;;;7.27;4.80;;;;;;;12.64;30.84;95529.25;5031300;28;20220;-63
2022/04/12 00:37:50;;;;;;;5.80;3.73;;;;;;;13.19;30.62;95526.97;5031096;28;20446;-64
2022/04/12 00:40:18;;;;;;;5.22;3.97;;;;;;;12.77;30.42;95533.28;5031315;28;20466;-57
2022/04/12 00:42:46;;;;;;;5.13;3.72;;;;;;;13.29;30.24;95530.69;5031763;28;20631;-57
2022/04/12 00:45:14;;;;;;;7.13;4.15;;;;;;;13.23;29.74;95533.28;5031184;28;20211;-56
2022/04/12 00:47:41;;;;;;;6.20;4.20;;;;;;;13.20;30.26;95533.81;5030783;28;20186;-67
2022/04/12 00:50:10;;;;;;;6.60;4.50;;;;;;;13.21;30.01;95524.06;5031291;28;20443;-63
2022/04/12 00:52:51;;;;;;;8.37;4.93;;;;;;;13.07;30.31;95528.22;5032112;28;20455;-63
2022/04/12 00:55:18;;;;;;;11.13;4.30;;;;;;;13.07;30.32;95529.00;5031535;28;20840;-60
2022/04/12 00:57:47;;;;;;;7.65;4.25;;;;;;;13.37;29.88;95517.03;5031067;28;20284;-62
2022/04/12 01:00:16;;;;;;;6.87;4.40;;;;;;;13.11;30.25;95530.09;5030554;28;20209;-57
2022/04/12 01:02:43;;;;;;;6.68;4.25;;;;;;;13.15;30.84;95525.91;5031444;28;20444;-63
2022/04/12 01:05:11;;;;;;;7.27;4.47;;;;;;;13.19;30.33;95523.56;5031365;28;20211;-56
2022/04/12 01:07:38;;;;;;;10.63;4.50;;;;;;;12.98;30.02;95525.25;5031148;28;20440;-52
2022/04/12 01:10:05;;;;;;;7.57;4.90;;;;;;;13.07;30.10;95523.75;5031244;28;20872;-59
2022/04/12 01:12:41;;;;;;;9.10;5.07;;;;;;;12.97;30.13;95523.66;5030025;28;20494;-66
2022/04/12 01:15:13;;;;;;;8.65;5.00;;;;;;;13.01;31.26;95527.34;5030757;28;20467;-59
2022/04/12 01:17:42;;;;;;;11.40;5.93;;;;;;;12.89;31.52;95512.81;5031095;28;20229;-60
2022/04/12 01:20:10;;;;;;;14.60;7.47;;;;;;;12.91;31.30;95516.78;5030520;28;20200;-58
2022/04/12 01:23:13;;;;;;;18.13;8.45;;;;;;;13.08;31.20;95530.59;5031182;28;20292;-59
2022/04/12 01:25:41;;;;;;;17.92;9.25;;;;;;;12.86;31.47;95524.66;5029066;28;20647;-59
2022/04/12 01:28:09;;;;;;;15.13;8.90;;;;;;;12.74;31.78;95526.66;5031030;28;20220;-61
2022/04/12 01:30:36;;;;;;;16.43;9.13;;;;;;;12.43;32.07;95527.50;5029955;28;20217;-54
2022/04/12 01:33:04;;;;;;;19.37;9.83;;;;;;;12.42;32.29;95525.13;5030731;28;20493;-55
2022/04/12 01:35:32;;;;;;;22.43;10.70;;;;;;;12.36;31.71;95521.66;5030429;28;20448;-60
2022/04/12 01:37:59;;;;;;;18.70;11.05;;;;;;;12.24;32.27;95528.94;5031265;28;20456;-57
2022/04/12 01:40:26;;;;;;;21.20;10.55;;;;;;;12.36;31.79;95532.16;5030265;28;20199;-59
2022/04/12 01:42:53;;;;;;;22.25;9.80;;;;;;;12.42;31.87;95525.91;5030991;28;20212;-57
2022/04/12 01:45:24;;;;;;;17.60;9.32;;;;;;;12.31;32.33;95528.69;5030527;28;20209;-58
2022/04/12 01:47:52;;;;;;;19.70;10.00;;;;;;;12.10;32.76;95527.72;5030461;28;20201;-61
2022/04/12 01:50:19;;;;;;;17.42;8.70;;;;;;;12.25;31.93;95535.75;5030420;28;20439;-64
2022/04/12 01:52:46;;;;;;;13.90;8.30;;;;;;;12.22;31.90;95531.00;5030361;28;20205;-59
2022/04/12 01:55:14;;;;;;;14.20;7.85;;;;;;;12.00;32.56;95531.06;5030243;28;20201;-62
2022/04/12 01:57:41;;;;;;;11.85;7.25;;;;;;;11.78;32.80;95529.53;5030407;28;20237;-59
2022/04/12 02:00:09;;;;;;;12.63;7.50;;;;;;;11.89;32.74;95529.38;5028207;28;20744;-59
2022/04/12 02:02:39;;;;;;;12.02;7.43;;;;;;;11.81;32.84;95531.63;5030340;28;20197;-62
2022/04/12 02:05:06;;;;;;;11.20;7.05;;;;;;;11.97;32.17;95522.91;5030265;28;20207;-63
2022/04/12 02:07:34;;;;;;;11.25;7.50;;;;;;;11.44;33.23;95528.06;5029995;28;20193;-55
2022/04/12 02:10:01;;;;;;;15.60;7.50;;;;;;;11.77;32.91;95523.47;5029768;28;20205;-58
2022/04/12 02:12:28;;;;;;;13.75;8.35;;;;;;;11.89;32.97;95531.22;5030149;28;20700;-50
2022/04/12 02:14:55;;;;;;;14.50;7.60;;;;;;;11.71;32.82;95524.47;5029767;28;20194;-55
2022/04/12 02:17:22;;;;;;;12.65;7.45;;;;;;;11.77;33.08;95527.94;5029946;28;20286;-55
2022/04/12 02:19:49;;;;;;;13.98;7.60;;;;;;;11.58;33.17;95524.81;5029619;28;20189;-66
2022/04/12 02:22:15;;;;;;;15.50;8.25;;;;;;;11.72;33.27;95520.00;5030048;28;20229;-55
2022/04/12 02:24:43;;;;;;;16.33;8.27;;;;;;;11.87;32.97;95517.53;5029367;28;20186;-59
2022/04/12 02:27:10;;;;;;;16.60;7.72;;;;;;;11.74;33.42;95523.16;5029744;28;20235;-61
2022/04/12 02:29:37;;;;;;;13.05;7.80;;;;;;;11.53;33.04;95516.88;5029237;28;20668;-62
2022/04/12 02:32:06;;;;;;;13.93;7.70;;;;;;;11.37;33.72;95516.97;5029070;28;20727;-57
2022/04/12 02:34:33;;;;;;;13.52;7.72;;;;;;;11.36;33.43;95516.16;5029488;28;20205;-59
2022/04/12 02:37:00;;;;;;;13.27;7.93;;;;;;;11.32;33.76;95524.75;5029961;28;20632;-62
2022/04/12 02:39:27;;;;;;;10.95;7.63;;;;;;;11.35;33.30;95524.28;5028930;28;20189;-56
2022/04/12 02:41:54;;;;;;;16.83;8.77;;;;;;;11.44;33.46;95528.84;5029783;28;20593;-57
2022/04/12 02:44:22;;;;;;;13.30;8.40;;;;;;;11.38;34.02;95518.53;5029762;28;20266;-60
2022/04/12 02:46:49;;;;;;;14.93;9.27;;;;;;;11.37;33.88;95525.59;5029379;28;20204;-66
2022/04/12 02:49:15;;;;;;;16.92;9.80;;;;;;;11.33;34.41;95515.88;5029612;28;20201;-63
2022/04/12 02:51:42;;;;;;;16.95;9.77;;;;;;;11.32;34.33;95525.56;5028828;28;20275;-60
2022/04/12 02:54:09;;;;;;;13.77;8.52;;;;;;;11.39;34.24;95525.34;5029643;28;20283;-60
2022/04/12 02:56:36;;;;;;;16.13;8.82;;;;;;;11.53;33.57;95531.84;5028922;28;20208;-57
2022/04/12 02:59:03;;;;;;;17.92;9.35;;;;;;;11.37;33.92;95519.59;5029207;28;20251;-57
2022/04/12 03:01:31;;;;;;;16.08;8.38;;;;;;;11.11;33.95;95529.75;5028845;28;20258;-53
2022/04/12 03:03:58;;;;;;;14.40;8.50;;;;;;;11.10;33.85;95525.56;5029576;28;20205;-61
2022/04/12 03:06:25;;;;;;;17.50;8.60;;;;;;;11.08;34.44;95527.63;5028925;28;20282;-60
2022/04/12 03:08:52;;;;;;;16.23;8.45;;;;;;;11.08;34.04;95519.75;5028817;28;20186;-60
2022/04/12 03:11:19;;;;;;;15.88;8.25;;;;;;;10.91;34.96;95523.47;5028997;28;20229;-61
2022/04/12 03:13:47;;;;;;;15.27;8.43;;;;;;;11.03;34.31;95522.31;5030051;28;20210;-58
2022/04/12 03:16:14;;;;;;;12.38;8.20;;;;;;;11.34;33.97;95533.97;5028857;28;20203;-55
2022/04/12 03:18:41;;;;;;;10.63;8.07;;;;;;;10.95;34.30;95527.97;5029455;28;20621;-62
2022/04/12 03:21:08;;;;;;;13.70;8.60;;;;;;;11.10;34.12;95532.63;5028432;28;20267;-64
2022/04/12 03:23:36;;;;;;;14.02;9.07;;;;;;;10.94;34.60;95534.25;5028753;28;20580;-54
2022/04/12 03:26:04;;;;;;;17.20;8.70;;;;;;;10.80;34.78;95527.75;5028116;28;20258;-58
2022/04/12 03:28:30;;;;;;;13.90;8.52;;;;;;;10.81;34.79;95539.84;5028783;28;20193;-60
2022/04/12 03:30:57;;;;;;;16.60;10.23;;;;;;;10.70;35.08;95538.09;5028508;28;20200;-61
2022/04/12 03:33:24;;;;;;;19.25;11.85;;;;;;;10.68;34.63;95550.66;5028820;28;20196;-60
2022/04/12 03:35:51;;;;;;;23.95;12.85;;;;;;;10.17;35.37;95553.50;5029566;28;20209;-59
2022/04/12 03:38:18;;;;;;;23.58;13.23;;;;;;;9.88;36.17;95555.31;5032858;28;20235;-57
2022/04/12 03:40:46;;;;;;;22.30;13.07;;;;;;;9.91;35.89;95554.03;5032538;28;20277;-55
2022/04/12 03:43:14;;;;;;;25.23;13.10;;;;;;;9.98;36.15;95552.09;5032878;28;20193;-62
2022/04/12 03:45:41;;;;;;;26.67;13.15;;;;;;;9.98;35.92;95546.88;5032733;28;20213;-55
2022/04/12 03:48:08;;;;;;;23.75;12.70;;;;;;;9.83;36.76;95549.19;5032587;28;20671;-65
2022/04/12 03:50:35;;;;;;;20.60;12.52;;;;;;;10.11;35.76;95549.19;5032530;28;20204;-56
2022/04/12 03:53:02;;;;;;;22.65;13.27;;;;;;;10.21;35.73;95557.22;5032702;28;20612;-62
2022/04/12 03:55:30;;;;;;;18.85;12.25;;;;;;;10.02;36.67;95545.34;5032693;28;20199;-61
2022/04/12 03:57:59;;;;;;;25.10;12.20;;;;;;;9.94;38.83;95550.97;5032182;28;20189;-55
2022/04/12 04:00:27;;;;;;;22.08;13.20;;;;;;;10.15;38.39;95550.31;5031607;28;20251;-62
2022/04/12 04:02:55;;;;;;;32.40;15.68;;;;;;;10.52;37.06;95551.47;5032777;28;20254;-55
2022/04/12 04:05:23;;;;;;;35.35;15.63;;;;;;;10.40;37.01;95542.88;5031989;28;20232;-60
2022/04/12 04:07:50;;;;;;;27.73;16.42;;;;;;;10.10;38.26;95552.84;5032619;28;20197;-64
2022/04/12 04:10:17;;;;;;;25.35;15.95;;;;;;;10.28;36.97;95555.25;5032280;28;20293;-60
2022/04/12 04:12:44;;;;;;;29.13;15.95;;;;;;;9.59;37.35;95566.00;5032288;28;20648;-56
2022/04/12 04:15:12;;;;;;;24.27;15.05;;;;;;;9.52;37.48;95560.94;5032279;28;20212;-61
2022/04/12 04:17:42;;;;;;;28.58;16.38;;;;;;;9.96;36.78;95564.63;5031982;28;20240;-54
2022/04/12 04:20:15;;;;;;;29.35;15.95;;;;;;;9.85;37.11;95565.47;5031380;28;20358;-64
2022/04/12 04:22:43;;;;;;;29.45;15.55;;;;;;;10.00;36.78;95563.09;5032156;28;20596;-60
2022/04/12 04:25:12;;;;;;;29.33;16.20;;;;;;;9.76;37.50;95556.41;5031631;28;20665;-56
2022/04/12 04:27:41;;;;;;;36.42;15.75;;;;;;;9.77;36.94;95574.47;5032650;28;20205;-61
2022/04/12 04:30:09;;;;;;;32.67;15.30;;;;;;;9.60;37.26;95578.09;5051637;28;20659;-56
2022/04/12 04:32:37;;;;;;;36.78;16.73;;;;;;;9.88;36.81;95570.22;5051557;28;20316;-56
2022/04/12 04:35:05;;;;;;;39.33;15.45;;;;;;;9.89;37.54;95575.22;5051268;28;20204;-59
2022/04/12 04:37:32;;;;;;;29.75;14.35;;;;;;;9.23;37.82;95573.13;5051485;28;20197;-62
2022/04/12 04:39:59;;;;;;;26.10;14.48;;;;;;;9.45;37.62;95564.69;5051029;28;20693;-57
2022/04/12 04:42:27;;;;;;;21.65;13.90;;;;;;;9.77;38.04;95584.16;5052141;28;20285;-58
2022/04/12 04:44:54;;;;;;;24.55;14.40;;;;;;;9.77;37.78;95578.91;5051449;28;20207;-59
2022/04/12 04:47:21;;;;;;;26.17;14.68;;;;;;;9.79;36.79;95582.09;5050648;28;20228;-59
2022/04/12 04:49:48;;;;;;;26.30;14.55;;;;;;;9.79;37.34;95587.34;5050862;28;20580;-62
2022/04/12 04:52:15;;;;;;;36.50;21.70;;;;;;;10.20;37.07;95585.25;5050537;28;20240;-66
2022/04/12 04:54:41;;;;;;;32.35;20.40;;;;;;;10.44;36.48;95591.13;5050636;28;20372;-57
2022/04/12 04:57:08;;;;;;;38.97;25.02;;;;;;;10.45;36.03;95592.75;5051510;28;20294;-57
2022/04/12 04:59:35;;;;;;;23.92;11.35;;;;;;;10.41;36.16;95591.63;5050555;28;20205;-58
2022/04/12 05:02:02;;;;;;;25.77;12.07;;;;;;;10.46;36.04;95589.09;5051749;28;20952;-59
2022/04/12 05:04:29;;;;;;;24.55;13.00;;;;;;;10.55;35.78;95582.41;5050925;28;20322;-63
2022/04/12 05:06:56;;;;;;;19.42;10.75;;;;;;;10.67;35.31;95584.97;5051304;28;20216;-63
2022/04/12 05:09:23;;;;;;;19.13;10.85;;;;;;;10.78;35.02;95586.72;5050811;28;20223;-60
2022/04/12 05:11:50;;;;;;;19.40;9.93;;;;;;;10.98;35.63;95582.53;5051262;28;20281;-56
2022/04/12 05:14:17;;;;;;;18.40;10.07;;;;;;;11.18;35.79;95582.03;5051225;28;20590;-56
2022/04/12 05:16:44;;;;;;;19.77;10.60;;;;;;;11.41;34.81;95581.81;5050154;28;20679;-60
2022/04/12 05:19:11;;;;;;;23.50;11.65;;;;;;;11.63;34.43;95580.00;5050945;28;20760;-52
2022/04/12 05:21:38;;;;;;;21.48;11.05;;;;;;;11.54;34.31;95580.66;5050502;28;20192;-60
2022/04/12 05:24:05;;;;;;;17.60;10.63;;;;;;;11.54;34.18;95586.72;5050713;28;20243;-55
2022/04/12 05:26:32;;;;;;;35.75;19.85;;;;;;;11.49;34.97;95586.66;5049891;28;20439;-69
2022/04/12 05:28:59;;;;;;;30.63;15.52;;;;;;;11.70;35.01;95585.06;5051014;28;20208;-62
2022/04/12 05:31:26;;;;;;;26.35;13.68;;;;;;;11.74;34.50;95580.94;5050143;28;20295;-57
2022/04/12 05:33:58;;;;;;;28.65;11.32;;;;;;;11.51;34.69;95587.22;5050611;28;20204;-58
2022/04/12 05:36:25;;;;;;;23.33;11.20;;;;;;;11.85;34.63;95587.88;5050305;28;20200;-55
2022/04/12 05:38:52;;;;;;;21.98;10.93;;;;;;;11.72;34.78;95580.38;5050653;28;20251;-56
2022/04/12 05:41:19;;;;;;;22.33;12.32;;;;;;;12.15;33.69;95556.69;5050337;28;20197;-56
2022/04/12 05:43:46;;;;;;;23.90;12.30;;;;;;;12.40;33.91;95577.94;5049627;28;20208;-57
2022/04/12 05:46:13;;;;;;;21.40;13.60;;;;;;;11.86;34.49;95563.22;5050030;28;20188;-58
2022/04/12 05:48:40;;;;;;;28.65;14.20;;;;;;;11.92;33.84;95578.78;5050613;28;20193;-58
2022/04/12 05:51:07;;;;;;;31.40;14.23;;;;;;;11.31;35.74;95580.91;5050276;28;20254;-57
2022/04/12 05:53:35;;;;;;;27.80;13.80;;;;;;;12.23;34.27;95574.63;5050212;28;20929;-55
2022/04/12 05:56:02;;;;;;;29.85;15.02;;;;;;;11.53;35.11;95579.84;5050072;28;20192;-53
2022/04/12 05:58:30;;;;;;;30.80;15.05;;;;;;;11.15;35.69;95590.38;5049981;28;20609;-58
2022/04/12 06:00:58;;;;;;;31.15;15.38;;;;;;;11.21;36.17;95595.47;5049998;28;20212;-55
2022/04/12 06:03:25;;;;;;;27.20;14.07;;;;;;;11.00;35.94;95595.44;5050083;28;20838;-55
2022/04/12 06:05:51;;;;;;;28.33;14.30;;;;;;;11.08;36.19;95587.94;5049884;28;20257;-59
2022/04/12 06:08:19;;;;;;;35.25;14.77;;;;;;;11.08;36.94;95593.19;5050191;28;20285;-53
2022/04/12 06:10:45;;;;;;;26.65;12.95;;;;;;;11.35;36.63;95603.00;5049481;28;20185;-58
2022/04/12 06:13:13;;;;;;;25.35;14.45;;;;;;;11.43;35.78;95592.06;5050551;28;20224;-61
2022/04/12 06:15:40;;;;;;;22.80;13.80;;;;;;;12.11;34.77;95597.63;5049556;28;20208;-58
2022/04/12 06:18:08;;;;;;;25.55;12.13;;;;;;;12.29;34.45;95602.53;5049705;28;20236;-57
2022/04/12 06:20:35;;;;;;;24.47;13.77;;;;;;;12.52;33.96;95612.72;5049879;28;20204;-57
2022/04/12 06:23:03;;;;;;;22.05;13.48;;;;;;;12.84;33.57;95610.91;5050294;28;20529;-54
2022/04/12 06:25:30;;;;;;;24.23;14.37;;;;;;;12.82;33.45;95609.56;5049755;28;20592;-54
2022/04/12 06:27:57;;;;;;;24.63;14.80;;;;;;;13.13;32.98;95604.31;5050023;28;20516;-58
2022/04/12 06:30:27;;;;;;;21.08;14.30;;;;;;;12.60;34.11;95612.28;5049237;28;20188;-54
2022/04/12 06:32:54;;;;;;;23.03;13.13;;;;;;;12.63;34.14;95611.78;5050193;28;20303;-61
2022/04/12 06:35:21;;;;;;;21.93;12.47;;;;;;;12.63;34.07;95609.16;5049048;28;20470;-56
2022/04/12 06:37:53;;;;;;;21.60;10.97;;;;;;;12.86;33.96;95610.66;5049565;28;21193;-58
2022/04/12 06:40:21;;;;;;;17.40;9.97;;;;;;;12.89;34.03;95605.69;5049193;28;20423;-60
2022/04/12 06:42:49;;;;;;;18.00;9.63;;;;;;;12.46;34.83;95619.00;5049871;28;20549;-60
2022/04/12 06:45:17;;;;;;;20.80;10.93;;;;;;;12.70;34.43;95609.72;5048952;28;20469;-60
2022/04/12 06:47:44;;;;;;;15.27;9.70;;;;;;;12.64;34.13;95623.09;5049360;28;20446;-62
2022/04/12 06:50:11;;;;;;;16.50;10.05;;;;;;;12.51;34.92;95613.78;5049156;28;20454;-56
2022/04/12 06:52:38;;;;;;;18.50;10.93;;;;;;;12.33;35.18;95611.50;5050035;28;20918;-60
2022/04/12 06:55:06;;;;;;;23.50;11.30;;;;;;;12.97;34.31;95604.44;5049070;28;20443;-55
2022/04/12 06:57:36;;;;;;;22.53;11.67;;;;;;;13.23;34.00;95608.03;5048959;28;20937;-55
2022/04/12 07:00:05;;;;;;;23.97;11.23;;;;;;;13.36;33.90;95612.88;5049721;28;20447;-59
2022/04/12 07:02:32;;;;;;;25.17;13.30;;;;;;;13.26;33.99;95620.69;5049658;28;20561;-55
2022/04/12 07:05:00;;;;;;;16.30;10.87;;;;;;;13.56;33.29;95615.56;5049015;28;20216;-61
2022/04/12 07:07:27;;;;;;;17.77;11.23;;;;;;;13.07;33.79;95592.16;5048998;28;20435;-59
2022/04/12 07:09:55;;;;;;;17.43;11.17;;;;;;;13.23;34.19;95600.94;5048522;28;20427;-53
2022/04/12 07:12:23;;;;;;;21.43;10.23;;;;;;;13.38;34.27;95598.38;5048499;28;20509;-53
2022/04/12 07:14:51;;;;;;;25.20;10.73;;;;;;;13.04;34.56;95608.47;5048707;28;21059;-58
2022/04/12 07:17:21;;;;;;;20.40;11.60;;;;;;;13.25;34.39;95592.81;5048577;28;20589;-58
2022/04/12 07:19:48;;;;;;;15.63;10.07;;;;;;;13.47;34.30;95598.69;5048737;28;20471;-56
2022/04/12 07:22:15;;;;;;;24.77;11.17;;;;;;;13.34;35.03;95596.53;5049132;28;21139;-63
2022/04/12 07:24:42;;;;;;;18.43;10.33;;;;;;;13.52;34.92;95594.22;5048686;28;20438;-60
2022/04/12 07:27:09;;;;;;;16.27;11.70;;;;;;;13.72;34.16;95598.81;5049093;28;20472;-61
2022/04/12 07:29:36;;;;;;;22.20;11.87;;;;;;;13.66;33.29;95602.47;5048878;28;21204;-54
2022/04/12 07:32:03;;;;;;;20.83;12.00;;;;;;;14.01;34.34;95607.88;5049444;28;20439;-54
2022/04/12 07:34:31;;;;;;;21.33;11.97;;;;;;;14.04;33.96;95596.81;5048552;28;20485;-56
2022/04/12 07:36:58;;;;;;;19.80;11.93;;;;;;;14.13;34.33;95600.53;5048980;28;20434;-56
2022/04/12 07:39:25;;;;;;;18.23;10.87;;;;;;;14.30;33.04;95590.59;5048268;28;20504;-59
2022/04/12 07:41:52;;;;;;;20.47;12.03;;;;;;;14.43;33.20;95595.34;5049346;28;20442;-56
2022/04/12 07:44:21;;;;;;;19.43;11.57;;;;;;;14.69;33.25;95578.47;5048800;28;21110;-53
2022/04/12 07:46:48;;;;;;;21.53;10.97;;;;;;;14.40;33.52;95581.91;5048899;28;20454;-62
2022/04/12 07:49:16;;;;;;;23.13;11.10;;;;;;;14.50;32.70;95574.78;5048620;28;20505;-54
2022/04/12 07:51:43;;;;;;;21.60;11.27;;;;;;;14.96;33.04;95573.72;5048741;28;20447;-56
2022/04/12 07:54:10;;;;;;;22.50;10.40;;;;;;;14.90;32.53;95574.00;5048629;28;20485;-57
2022/04/12 07:56:37;;;;;;;14.30;6.93;;;;;;;14.00;31.60;95574.66;5048265;28;20453;-58
2022/04/12 07:59:04;;;;;;;11.53;6.47;;;;;;;14.69;30.27;95583.75;5048665;28;20524;-59
2022/04/12 08:01:30;;;;;;;7.20;4.20;;;;;;;13.73;28.11;95581.97;5048318;28;20446;-52
2022/04/12 08:03:58;;;;;;;17.07;4.37;;;;;;;14.27;27.97;95554.19;5049006;28;20436;-57
2022/04/12 08:06:24;;;;;;;9.17;4.73;;;;;;;14.82;28.21;95562.13;5048080;28;20443;-53
2022/04/12 08:08:51;;;;;;;13.10;4.57;;;;;;;14.71;26.58;95554.47;5048767;28;20451;-58
2022/04/12 08:11:18;;;;;;;6.40;2.93;;;;;;;14.60;26.17;95553.69;5048344;28;20442;-56
2022/04/12 08:13:46;;;;;;;5.93;3.00;;;;;;;14.94;26.06;95560.00;5048570;28;20494;-58
2022/04/12 08:16:15;;;;;;;6.63;3.00;;;;;;;14.90;25.55;95550.25;5047618;28;20501;-51
2022/04/12 08:18:46;;;;;;;7.23;3.00;;;;;;;15.44;25.56;95530.06;5048239;28;20957;-61
2022/04/12 08:21:13;;;;;;;8.67;3.57;;;;;;;15.98;25.58;95541.44;5048024;28;20965;-55
2022/04/12 08:23:41;;;;;;;11.20;3.27;;;;;;;15.76;26.29;95524.41;5052098;28;20450;-54
2022/04/12 08:26:08;;;;;;;7.90;3.23;;;;;;;15.62;25.20;95544.56;5051682;28;20438;-63
2022/04/12 08:28:35;;;;;;;5.77;3.50;;;;;;;15.68;25.33;95544.25;5052217;28;21070;-58
2022/04/12 08:31:02;;;;;;;4.10;3.07;;;;;;;15.44;23.91;95542.50;5051774;28;20462;-55
2022/04/12 08:33:29;;;;;;;4.53;2.90;;;;;;;14.91;24.06;95539.41;5051635;28;20484;-56
2022/04/12 08:35:56;;;;;;;5.83;3.10;;;;;;;14.64;24.59;95523.09;5051552;28;20957;-58
2022/04/12 08:38:23;;;;;;;5.53;3.20;;;;;;;15.02;24.85;95530.44;5052092;28;20546;-60
2022/04/12 08:40:54;;;;;;;7.33;3.80;;;;;;;15.14;24.71;95533.56;5051379;28;20571;-60
2022/04/12 08:43:22;;;;;;;6.77;3.10;;;;;;;15.17;24.82;95527.75;5051862;28;20470;-54
2022/04/12 08:45:49;;;;;;;8.43;3.10;;;;;;;15.36;25.08;95532.47;5051407;28;20485;-58
2022/04/12 08:48:16;;;;;;;6.97;3.23;;;;;;;15.91;26.22;95526.97;5051742;28;20443;-57
2022/04/12 08:50:44;;;;;;;7.53;2.83;;;;;;;16.18;26.00;95517.53;5051351;28;20434;-55
2022/04/12 08:53:12;;;;;;;7.93;3.10;;;;;;;16.26;24.38;95502.16;5051877;28;20525;-62
2022/04/12 08:55:40;;;;;;;7.43;2.97;;;;;;;16.26;24.10;95507.44;5051151;28;20446;-60
2022/04/12 08:58:07;;;;;;;5.80;3.20;;;;;;;16.03;24.27;95511.56;5051478;28;20918;-57
2022/04/12 09:00:35;;;;;;;4.60;2.80;;;;;;;15.95;24.40;95507.63;5050968;28;20461;-58
2022/04/12 09:03:03;;;;;;;6.33;3.10;;;;;;;16.19;25.15;95513.03;5051638;28;20431;-55
2022/04/12 09:05:32;;;;;;;4.87;3.13;;;;;;;15.18;24.08;95508.22;5051355;28;20442;-59
2022/04/12 09:07:59;;;;;;;4.80;2.80;;;;;;;14.59;23.85;95509.13;5051242;28;20431;-55
2022/04/12 09:10:35;;;;;;;6.60;3.17;;;;;;;15.23;23.96;95510.06;5051210;28;20503;-61
2022/04/12 09:13:09;;;;;;;10.83;3.40;;;;;;;15.47;23.90;95510.25;5051135;28;20543;-55
2022/04/12 09:15:46;;;;;;;5.27;2.97;;;;;;;16.61;24.84;95493.94;5051084;28;20979;-59
2022/04/12 09:18:37;;;;;;;6.33;3.07;;;;;;;17.29;23.58;95494.59;5051563;28;20434;-61
2022/04/12 09:21:16;;;;;;;8.70;3.23;;;;;;;16.76;21.67;95491.19;5049633;28;20475;-62
2022/04/12 09:23:55;;;;;;;6.23;3.20;;;;;;;16.71;23.32;95499.97;5051350;28;20438;-52
2022/04/12 09:26:30;;;;;;;6.17;3.00;;;;;;;17.30;22.74;95490.88;5051570;28;20538;-56
2022/04/12 09:29:00;;;;;;;7.40;3.33;;;;;;;16.83;23.05;95492.44;5052323;28;20433;-55
2022/04/12 09:31:27;;;;;;;5.30;2.90;;;;;;;17.59;22.25;95479.16;5051033;28;20472;-61
2022/04/12 09:33:55;;;;;;;5.73;2.90;;;;;;;16.43;23.09;95479.53;5050477;28;20486;-57
2022/04/12 09:36:22;;;;;;;4.43;2.73;;;;;;;17.40;23.69;95482.81;5050762;28;20447;-58
2022/04/12 09:38:56;;;;;;;9.57;2.53;;;;;;;17.85;22.58;95467.13;5050670;28;20466;-56
2022/04/12 09:41:24;;;;;;;7.40;2.90;;;;;;;18.00;22.83;95471.44;5050535;28;20433;-56
2022/04/12 09:44:10;;;;;;;3.77;2.57;;;;;;;18.45;22.40;95462.03;5051441;28;20439;-55
2022/04/12 09:46:38;;;;;;;6.63;2.63;;;;;;;17.07;22.12;95471.28;5050302;28;20447;-58
2022/04/12 09:49:06;;;;;;;7.17;2.57;;;;;;;17.95;22.15;95466.22;5050563;28;20513;-61
2022/04/12 09:51:37;;;;;;;9.23;2.63;;;;;;;17.86;21.64;95457.34;5050443;28;20443;-60
2022/04/12 09:54:06;;;;;;;4.50;2.50;;;;;;;18.71;21.32;95450.69;5051166;28;21027;-52
2022/04/12 09:56:36;;;;;;;3.77;2.30;;;;;;;18.41;21.64;95445.88;5051015;28;20497;-58
2022/04/12 09:59:07;;;;;;;3.93;2.60;;;;;;;18.58;21.56;95446.13;5051859;28;20510;-52
2022/04/12 10:01:39;;;;;;;8.37;2.77;;;;;;;19.46;21.40;95431.75;5050697;28;20545;-62
2022/04/12 10:04:09;;;;;;;6.10;2.70;;;;;;;19.26;21.32;95416.19;5050872;28;20504;-60
2022/04/12 10:06:41;;;;;;;4.97;2.60;;;;;;;19.66;21.12;95413.50;5050300;28;20434;-58
2022/04/12 10:09:11;;;;;;;6.47;2.60;;;;;;;18.46;21.69;95419.28;5050494;28;20505;-58
2022/04/12 10:11:39;;;;;;;3.23;2.30;;;;;;;17.72;22.45;95424.63;5049907;28;20530;-58
2022/04/12 10:14:06;;;;;;;5.97;2.50;;;;;;;18.97;21.51;95411.97;5050649;28;20878;-58
2022/04/12 10:16:34;;;;;;;5.13;2.70;;;;;;;18.11;21.59;95411.88;5050127;28;20485;-50
2022/04/12 10:19:01;;;;;;;4.13;2.00;;;;;;;17.36;22.74;95404.97;5050649;28;20439;-57
2022/04/12 10:21:29;;;;;;;6.43;2.07;;;;;;;18.39;21.29;95399.47;5049890;28;20435;-60
2022/04/12 10:23:58;;;;;;;5.10;2.70;;;;;;;18.76;21.53;95402.00;5065647;28;20957;-51
2022/04/12 10:26:27;;;;;;;3.90;2.60;;;;;;;18.84;21.60;95399.47;5049591;28;20455;-61
2022/04/12 10:29:01;;;;;;;2.70;2.00;;;;;;;18.57;21.78;95386.19;5050159;28;20471;-59
2022/04/12 10:31:32;;;;;;;5.80;2.90;;;;;;;20.03;21.56;95380.47;5049120;28;20447;-57
2022/04/12 10:34:09;;;;;;;3.63;2.63;;;;;;;19.84;21.04;95385.16;5050080;28;20502;-57
2022/04/12 10:37:03;;;;;;;6.27;2.20;;;;;;;19.58;21.46;95376.22;5049908;28;20451;-59
2022/04/12 10:39:56;;;;;;;3.73;2.50;;;;;;;19.25;21.04;95382.72;5049425;28;20441;-50
2022/04/12 10:42:31;;;;;;;4.73;2.10;;;;;;;19.17;20.94;95370.94;5049450;28;20431;-61
2022/04/12 10:45:02;;;;;;;3.63;2.00;;;;;;;18.21;21.14;95369.25;5049205;28;20979;-52
2022/04/12 10:47:33;;;;;;;3.77;2.07;;;;;;;20.11;21.86;95364.56;5049947;28;20522;-55
2022/04/12 10:50:07;;;;;;;3.87;1.90;;;;;;;19.94;20.93;95356.44;5049058;28;20584;-58
2022/04/12 10:52:35;;;;;;;5.30;2.17;;;;;;;19.91;21.69;95358.94;5049420;28;20454;-58
2022/04/12 10:55:05;;;;;;;2.60;2.10;;;;;;;19.38;20.92;95361.47;5049200;28;20496;-59
2022/04/12 10:57:33;;;;;;;7.37;2.50;;;;;;;19.82;22.14;95360.75;5049634;28;20446;-54
2022/04/12 11:00:10;;;;;;;3.93;2.20;;;;;;;19.85;20.80;95360.16;5048438;28;20981;-58
2022/04/12 11:02:43;;;;;;;5.60;2.30;;;;;;;20.71;21.55;95346.25;5049765;28;20450;-52
2022/04/12 11:05:45;;;;;;;2.83;1.70;;;;;;;21.40;20.47;95338.47;5049089;28;20925;-60
2022/04/12 11:08:14;;;;;;;8.17;2.43;;;;;;;21.36;19.74;95348.19;5049251;28;20900;-54
2022/04/12 11:10:42;;;;;;;5.87;2.37;;;;;;;21.91;20.15;95336.66;5049100;28;20450;-56
2022/04/12 11:13:10;;;;;;;5.27;2.77;;;;;;;21.79;18.84;95333.03;5049933;28;20834;-56
2022/04/12 11:15:39;;;;;;;4.60;2.13;;;;;;;21.62;18.91;95333.00;5049259;28;20505;-54
2022/04/12 11:18:12;;;;;;;2.07;1.77;;;;;;;22.51;18.43;95311.69;5048649;28;20466;-57
2022/04/12 11:20:42;;;;;;;3.90;1.93;;;;;;;22.74;19.45;95327.19;5049084;28;20453;-58
2022/04/12 11:23:14;;;;;;;2.13;1.70;;;;;;;23.10;18.08;95324.78;5049464;28;20808;-58
2022/04/12 11:25:51;;;;;;;4.90;1.80;;;;;;;23.06;18.53;95307.81;5048847;28;20443;-57
2022/04/12 11:28:23;;;;;;;2.47;1.80;;;;;;;22.73;17.60;95309.59;5047630;28;20441;-57
2022/04/12 11:30:59;;;;;;;4.23;1.87;;;;;;;22.75;17.17;95304.72;5048834;28;20454;-58
2022/04/12 11:33:28;;;;;;;3.77;1.90;;;;;;;22.71;17.46;95309.13;5049285;28;20502;-53
2022/04/12 11:35:57;;;;;;;3.57;1.90;;;;;;;23.70;18.66;95286.94;5048830;28;20443;-64